Latest Weather Observations for Little Bay

IDN60801

Issued at 9:05 pm EDT Saturday 25 October 2014 (issued every 30 minutes, with the page automatically refreshed every 10 minutes)

About weather observations | Map of weather stations | Latest weather observations for NSW | Other Formats
Station Details ID: 066051 Name: LITTLE BAY (THE COAST GOLF CLUB) Lat: -33.98 Lon: 151.25 Height: 22.0 m
Data from the previous 72 hours. | See also: Recent months for locations in New South Wales
Date/Time
EDT
Temp
°C
App
Temp
°C
Dew
Point
Rel
Hum
%
Delta-T
°C
Wind Press
QNH
hPa
Press
MSL
hPa
Rain
since 9 am
mm
Dir
 
Spd
km/h
Gust
km/h
Spd
kts
Gust
kts
25/09:00pm - - - - - SSE 15 19 8 10 - - -
25/08:30pm - - - - - SSE 19 26 10 14 - - -
25/08:00pm - - - - - SSE 19 24 10 13 - - -
25/07:30pm - - - - - S 15 20 8 11 - - -
25/07:00pm - - - - - S 22 28 12 15 - - -
25/06:30pm - - - - - S 19 26 10 14 - - -
25/06:00pm - - - - - S 17 26 9 14 - - -
25/05:30pm - - - - - S 17 20 9 11 - - -
25/05:00pm - - - - - S 20 26 11 14 - - -
25/04:30pm - - - - - S 24 33 13 18 - - -
25/04:00pm - - - - - S 20 28 11 15 - - -
25/03:30pm - - - - - S 20 30 11 16 - - -
25/03:00pm - - - - - S 24 30 13 16 - - -
25/02:30pm - - - - - S 22 30 12 16 - - -
25/02:00pm - - - - - S 20 26 11 14 - - -
25/01:30pm - - - - - S 20 30 11 16 - - -
25/01:00pm - - - - - S 17 24 9 13 - - -
25/12:30pm - - - - - S 19 24 10 13 - - -
25/12:00pm - - - - - S 19 24 10 13 - - -
25/11:30am - - - - - S 15 24 8 13 - - -
25/11:00am - - - - - SSW 11 17 6 9 - - -
25/10:30am - - - - - S 19 24 10 13 - - -
25/10:00am - - - - - S 19 24 10 13 - - -
25/09:30am - - - - - W 13 17 7 9 - - -
25/09:00am - - - - - W 9 13 5 7 - - -
25/08:30am - - - - - W 9 15 5 8 - - -
25/08:00am - - - - - W 13 17 7 9 - - -
25/07:30am - - - - - W 13 19 7 10 - - -
25/07:00am - - - - - W 6 11 3 6 - - -
25/06:30am - - - - - W 9 11 5 6 - - -
25/06:00am - - - - - CALM 0 7 0 4 - - -
25/05:30am - - - - - WNW 4 7 2 4 - - -
25/05:00am - - - - - N 4 6 2 3 - - -
25/04:30am - - - - - N 6 11 3 6 - - -
25/04:00am - - - - - NNE 9 15 5 8 - - -
25/03:30am - - - - - NE 7 11 4 6 - - -
25/03:00am - - - - - CALM 0 6 0 3 - - -
25/02:30am - - - - - CALM 0 0 0 0 - - -
25/02:00am - - - - - CALM 0 0 0 0 - - -
25/01:30am - - - - - ESE 2 6 1 3 - - -
25/01:00am - - - - - CALM 0 6 0 3 - - -
25/12:30am - - - - - ESE 4 6 2 3 - - -
25/12:00am - - - - - SSE 0 6 0 3 - - -
 
Date/Time
EDT
Temp
°C
App
Temp
°C
Dew
Point
Rel
Hum
%
Delta-T
°C
Wind Press
QNH
hPa
Press
MSL
hPa
Rain
since 9 am
mm
Dir
 
Spd
km/h
Gust
km/h
Spd
kts
Gust
kts
24/11:30pm - - - - - SW 4 9 2 5 - - -
24/11:00pm - - - - - NNE 15 20 8 11 - - -
24/10:30pm - - - - - NNE 20 26 11 14 - - -
24/10:00pm - - - - - N 19 33 10 18 - - -
24/09:30pm - - - - - N 26 35 14 19 - - -
24/09:00pm - - - - - NNE 35 46 19 25 - - -
24/08:30pm - - - - - NNE 32 43 17 23 - - -
24/08:00pm - - - - - NNE 33 43 18 23 - - -
24/07:30pm - - - - - NNE 33 44 18 24 - - -
24/07:00pm - - - - - NNE 35 44 19 24 - - -
24/06:30pm - - - - - NNE 32 43 17 23 - - -
24/06:00pm - - - - - NNE 30 41 16 22 - - -
24/05:30pm - - - - - NNE 33 43 18 23 - - -
24/05:00pm - - - - - NNE 33 48 18 26 - - -
24/04:30pm - - - - - NNE 33 46 18 25 - - -
24/04:00pm - - - - - NNE 32 39 17 21 - - -
24/03:30pm - - - - - NNE 32 37 17 20 - - -
24/03:00pm - - - - - NNE 28 35 15 19 - - -
24/02:30pm - - - - - NNE 28 37 15 20 - - -
24/02:00pm - - - - - NNE 30 37 16 20 - - -
24/01:30pm - - - - - NNE 26 33 14 18 - - -
24/01:00pm - - - - - NE 17 22 9 12 - - -
24/12:30pm - - - - - ENE 15 20 8 11 - - -
24/12:00pm - - - - - NE 13 17 7 9 - - -
24/11:30am - - - - - N 13 22 7 12 - - -
24/11:00am - - - - - NNE 15 24 8 13 - - -
24/10:30am - - - - - S 9 13 5 7 - - -
24/10:00am - - - - - N 9 15 5 8 - - -
24/09:30am - - - - - N 15 22 8 12 - - -
24/09:00am - - - - - N 19 28 10 15 - - -
24/08:30am - - - - - N 15 22 8 12 - - -
24/08:00am - - - - - NNE 15 19 8 10 - - -
24/07:30am - - - - - NE 19 30 10 16 - - -
24/07:00am - - - - - SSE 6 7 3 4 - - -
24/06:30am - - - - - SE 7 11 4 6 - - -
24/06:00am - - - - - SSW 9 19 5 10 - - -
24/05:30am - - - - - WSW 2 7 1 4 - - -
24/05:00am - - - - - NNE 6 9 3 5 - - -
24/04:30am - - - - - CALM 0 2 0 1 - - -
24/04:00am - - - - - W 9 17 5 9 - - -
24/03:30am - - - - - NE 6 9 3 5 - - -
24/03:00am - - - - - NNE 13 17 7 9 - - -
24/02:30am - - - - - ENE 11 15 6 8 - - -
24/02:00am - - - - - S 11 15 6 8 - - -
24/01:30am - - - - - S 13 19 7 10 - - -
24/01:00am - - - - - S 9 13 5 7 - - -
24/12:30am - - - - - SSW 7 9 4 5 - - -
24/12:00am - - - - - SSE 4 4 2 2 - - -
 
Date/Time
EDT
Temp
°C
App
Temp
°C
Dew
Point
Rel
Hum
%
Delta-T
°C
Wind Press
QNH
hPa
Press
MSL
hPa
Rain
since 9 am
mm
Dir
 
Spd
km/h
Gust
km/h
Spd
kts
Gust
kts
23/11:30pm - - - - - CALM 0 0 0 0 - - -
23/11:00pm - - - - - CALM 0 4 0 2 - - -
23/10:30pm - - - - - CALM 0 2 0 1 - - -
23/10:00pm - - - - - E 9 11 5 6 - - -
23/09:30pm - - - - - SE 4 6 2 3 - - -
23/09:00pm - - - - - CALM 0 0 0 0 - - -
23/08:30pm - - - - - S 4 6 2 3 - - -
23/08:00pm - - - - - CALM 0 2 0 1 - - -
23/07:30pm - - - - - SSE 6 7 3 4 - - -
23/07:00pm - - - - - CALM 0 0 0 0 - - -
23/06:30pm - - - - - NE 4 6 2 3 - - -
23/06:00pm - - - - - ENE 7 9 4 5 - - -
23/05:30pm - - - - - E 11 13 6 7 - - -
23/05:00pm - - - - - ENE 7 9 4 5 - - -
23/04:30pm - - - - - ENE 9 11 5 6 - - -
23/04:00pm - - - - - E 7 11 4 6 - - -
23/03:30pm - - - - - ENE 9 11 5 6 - - -
23/03:00pm - - - - - ENE 11 13 6 7 - - -
23/02:30pm - - - - - ENE 9 11 5 6 - - -
23/02:00pm - - - - - ENE 9 13 5 7 - - -
23/01:30pm - - - - - ENE 9 13 5 7 - - -
23/01:00pm - - - - - NE 9 13 5 7 - - -
23/12:30pm - - - - - NE 9 15 5 8 - - -
23/12:00pm - - - - - NE 9 13 5 7 - - -
23/11:30am - - - - - NE 11 15 6 8 - - -
23/11:00am - - - - - NE 11 15 6 8 - - -
23/10:30am - - - - - NNE 13 17 7 9 - - -
23/10:00am - - - - - NE 13 19 7 10 - - -
23/09:30am - - - - - NE 9 13 5 7 - - -
23/09:00am - - - - - NW 6 9 3 5 - - -
23/08:30am - - - - - NNW 7 13 4 7 - - -
23/08:00am - - - - - W 13 17 7 9 - - -
23/07:30am - - - - - WNW 7 13 4 7 - - -
23/07:00am - - - - - NW 6 7 3 4 - - -
23/06:30am - - - - - NNW 4 6 2 3 - - -
23/06:00am - - - - - N 6 7 3 4 - - -
23/05:30am - - - - - NNW 9 13 5 7 - - -
23/05:00am - - - - - NNW 7 11 4 6 - - -
23/04:30am - - - - - NW 7 11 4 6 - - -
23/04:00am - - - - - NNW 6 7 3 4 - - -
23/03:30am - - - - - NNW 6 7 3 4 - - -
23/03:00am - - - - - N 6 7 3 4 - - -
23/02:30am - - - - - NNW 6 7 3 4 - - -
23/02:00am - - - - - N 9 13 5 7 - - -
23/01:30am - - - - - N 11 19 6 10 - - -
23/01:00am - - - - - N 17 24 9 13 - - -
23/12:30am - - - - - N 19 24 10 13 - - -
23/12:00am - - - - - N 19 26 10 14 - - -
 
Date/Time
EDT
Temp
°C
App
Temp
°C
Dew
Point
Rel
Hum
%
Delta-T
°C
Wind Press
QNH
hPa
Press
MSL
hPa
Rain
since 9 am
mm
Dir
 
Spd
km/h
Gust
km/h
Spd
kts
Gust
kts
22/11:30pm - - - - - N 19 30 10 16 - - -
22/11:00pm - - - - - N 19 28 10 15 - - -
22/10:30pm - - - - - NNE 26 35 14 19 - - -
22/10:00pm - - - - - NNE 26 35 14 19 - - -
22/09:30pm - - - - - NNE 26 35 14 19 - - -

Other Formats:

Comma delimited format used in spreadsheet applications
http://www.bom.gov.au/fwo/IDN60801/IDN60801.94780.axf

JavaScript Object Notation format (JSON) in row-major order
http://www.bom.gov.au/fwo/IDN60801/IDN60801.94780.json